Inuvik Airport

Current Flights

Info
Name: Inuvik Airport
Identifier:  YEV/CYEV
Local Time:  21. May 08:30
City
Flights per Day
10 flights
Distance: 482km (299mi)
Punctuality
94% (0 flights per day delayed)
Delay Average: 119 minutes
Current Weather
 9 C (Humidity: 57%)
  13kt (24km/h / 14mph) from 120°
  Few clouds at 11,000 feet (3,352 meter)
  Few clouds at 25,000 feet (7,620 meter)
  24km (14 mi.)
 METAR CYEV 211400Z 12013KT 15SM FEW110 FEW250 09/01 A3011 RMK AC1CI1 AC TR SLP203

Current Delays

Departures
N/A
Arrivals
N/A

Destinations

Top Destinations
Airport Flights
per week
Seats
per week
  Yellowknife (YZF) <1 - 0 0
  Edmonton (YEG) <1 49 0 7

Airlines & Planes

Top Airlines
Airline Flights
per Day
Seats
per Day
  Kenn Borek Air <1 -
  Canadian North <1 16
Top Plane Types
Manufacturer Model Flights Seats
Beech B200 Super King Air 0.7/day - 0
Boeing B737-200 0.1/day 7/day 7.466666666666667